sensor_id;sensor_type;location;lat;lon;timestamp;temperature;humidity
32536;DHT22;18974;50.838;4.636;2023-02-25T00:02:12;4.70;99.90
32536;DHT22;18974;50.838;4.636;2023-02-25T00:04:39;4.70;99.90
32536;DHT22;18974;50.838;4.636;2023-02-25T00:07:06;4.70;99.90
32536;DHT22;18974;50.838;4.636;2023-02-25T00:09:32;4.70;99.90
32536;DHT22;18974;50.838;4.636;2023-02-25T00:11:58;4.70;99.90
32536;DHT22;18974;50.838;4.636;2023-02-25T00:14:23;4.70;99.90
32536;DHT22;18974;50.838;4.636;2023-02-25T00:16:49;4.60;99.90
32536;DHT22;18974;50.838;4.636;2023-02-25T00:19:15;4.70;99.90
32536;DHT22;18974;50.838;4.636;2023-02-25T00:21:41;4.70;99.90
32536;DHT22;18974;50.838;4.636;2023-02-25T00:24:06;4.70;99.90
32536;DHT22;18974;50.838;4.636;2023-02-25T00:26:32;4.60;99.90
32536;DHT22;18974;50.838;4.636;2023-02-25T00:28:58;4.70;99.90
32536;DHT22;18974;50.838;4.636;2023-02-25T00:31:24;4.60;99.90
32536;DHT22;18974;50.838;4.636;2023-02-25T00:33:50;4.60;99.90
32536;DHT22;18974;50.838;4.636;2023-02-25T00:36:24;4.60;99.90
32536;DHT22;18974;50.838;4.636;2023-02-25T00:38:52;4.60;99.90
32536;DHT22;18974;50.838;4.636;2023-02-25T00:41:20;4.60;99.90
32536;DHT22;18974;50.838;4.636;2023-02-25T00:43:54;4.60;99.90
32536;DHT22;18974;50.838;4.636;2023-02-25T00:46:20;4.50;99.90
32536;DHT22;18974;50.838;4.636;2023-02-25T00:48:46;4.50;99.90
32536;DHT22;18974;50.838;4.636;2023-02-25T00:51:18;4.40;99.90
32536;DHT22;18974;50.838;4.636;2023-02-25T00:53:45;4.40;99.90
32536;DHT22;18974;50.838;4.636;2023-02-25T00:56:12;4.40;99.90
32536;DHT22;18974;50.838;4.636;2023-02-25T00:58:45;4.30;99.90
32536;DHT22;18974;50.838;4.636;2023-02-25T01:01:26;4.30;99.90
32536;DHT22;18974;50.838;4.636;2023-02-25T01:03:53;4.20;99.90
32536;DHT22;18974;50.838;4.636;2023-02-25T01:06:21;4.30;99.90
32536;DHT22;18974;50.838;4.636;2023-02-25T01:08:47;4.40;99.90
32536;DHT22;18974;50.838;4.636;2023-02-25T01:11:15;4.40;99.90
32536;DHT22;18974;50.838;4.636;2023-02-25T01:13:42;4.50;99.90
32536;DHT22;18974;50.838;4.636;2023-02-25T01:16:13;4.60;99.90
32536;DHT22;18974;50.838;4.636;2023-02-25T01:18:40;4.60;99.90
32536;DHT22;18974;50.838;4.636;2023-02-25T01:21:06;4.70;99.90
32536;DHT22;18974;50.838;4.636;2023-02-25T01:23:32;4.80;99.90
32536;DHT22;18974;50.838;4.636;2023-02-25T01:25:58;4.90;99.90
32536;DHT22;18974;50.838;4.636;2023-02-25T01:28:23;5.10;99.90
32536;DHT22;18974;50.838;4.636;2023-02-25T01:30:49;5.10;99.90
32536;DHT22;18974;50.838;4.636;2023-02-25T01:33:15;5.10;99.90
32536;DHT22;18974;50.838;4.636;2023-02-25T01:35:40;5.20;99.90
32536;DHT22;18974;50.838;4.636;2023-02-25T01:38:06;5.10;99.90
32536;DHT22;18974;50.838;4.636;2023-02-25T01:40:31;5.10;99.90
32536;DHT22;18974;50.838;4.636;2023-02-25T01:42:57;5.10;99.90
32536;DHT22;18974;50.838;4.636;2023-02-25T01:45:27;5.10;99.90
32536;DHT22;18974;50.838;4.636;2023-02-25T01:48:04;5.10;99.90
32536;DHT22;18974;50.838;4.636;2023-02-25T01:50:46;5.30;99.90
32536;DHT22;18974;50.838;4.636;2023-02-25T01:53:16;5.30;99.90
32536;DHT22;18974;50.838;4.636;2023-02-25T01:55:42;5.40;99.90
32536;DHT22;18974;50.838;4.636;2023-02-25T01:58:08;5.40;99.90
32536;DHT22;18974;50.838;4.636;2023-02-25T02:00:34;5.40;99.90
32536;DHT22;18974;50.838;4.636;2023-02-25T02:03:01;5.50;99.90
32536;DHT22;18974;50.838;4.636;2023-02-25T02:05:41;5.50;99.90
32536;DHT22;18974;50.838;4.636;2023-02-25T02:08:10;5.50;99.90
32536;DHT22;18974;50.838;4.636;2023-02-25T02:10:35;5.50;99.90
32536;DHT22;18974;50.838;4.636;2023-02-25T02:13:01;5.50;99.90
32536;DHT22;18974;50.838;4.636;2023-02-25T02:15:27;5.50;99.90
32536;DHT22;18974;50.838;4.636;2023-02-25T02:18:01;5.50;99.90
32536;DHT22;18974;50.838;4.636;2023-02-25T02:21:43;5.40;99.90
32536;DHT22;18974;50.838;4.636;2023-02-25T02:26:25;5.10;99.90
32536;DHT22;18974;50.838;4.636;2023-02-25T02:31:48;4.90;99.90
32536;DHT22;18974;50.838;4.636;2023-02-25T02:34:21;4.80;99.90
32536;DHT22;18974;50.838;4.636;2023-02-25T02:47:22;4.60;99.90
32536;DHT22;18974;50.838;4.636;2023-02-25T02:50:05;4.60;99.90
32536;DHT22;18974;50.838;4.636;2023-02-25T02:52:36;4.60;99.90
32536;DHT22;18974;50.838;4.636;2023-02-25T02:55:07;4.70;99.90
32536;DHT22;18974;50.838;4.636;2023-02-25T02:57:36;4.80;99.90
32536;DHT22;18974;50.838;4.636;2023-02-25T03:00:10;4.90;99.90
32536;DHT22;18974;50.838;4.636;2023-02-25T03:02:49;4.90;99.90
32536;DHT22;18974;50.838;4.636;2023-02-25T03:05:17;5.00;99.90
32536;DHT22;18974;50.838;4.636;2023-02-25T03:07:49;5.10;99.90
32536;DHT22;18974;50.838;4.636;2023-02-25T03:10:19;5.10;99.90
32536;DHT22;18974;50.838;4.636;2023-02-25T03:12:45;5.20;99.90
32536;DHT22;18974;50.838;4.636;2023-02-25T03:15:11;5.20;99.90
32536;DHT22;18974;50.838;4.636;2023-02-25T03:17:42;5.30;99.90
32536;DHT22;18974;50.838;4.636;2023-02-25T03:20:16;5.30;99.90
32536;DHT22;18974;50.838;4.636;2023-02-25T03:22:45;5.30;99.90
32536;DHT22;18974;50.838;4.636;2023-02-25T03:25:25;5.40;99.90
32536;DHT22;18974;50.838;4.636;2023-02-25T03:27:56;5.40;99.90
32536;DHT22;18974;50.838;4.636;2023-02-25T03:33:15;5.50;99.90
32536;DHT22;18974;50.838;4.636;2023-02-25T03:35:45;5.50;99.90
32536;DHT22;18974;50.838;4.636;2023-02-25T03:38:14;5.60;99.90
32536;DHT22;18974;50.838;4.636;2023-02-25T03:40:42;5.60;99.90
32536;DHT22;18974;50.838;4.636;2023-02-25T03:43:12;5.60;99.90
32536;DHT22;18974;50.838;4.636;2023-02-25T03:45:40;5.60;99.90
32536;DHT22;18974;50.838;4.636;2023-02-25T03:48:08;5.70;99.90
32536;DHT22;18974;50.838;4.636;2023-02-25T03:50:39;5.70;99.90
32536;DHT22;18974;50.838;4.636;2023-02-25T03:53:06;5.60;99.90
32536;DHT22;18974;50.838;4.636;2023-02-25T03:55:32;5.70;99.90
32536;DHT22;18974;50.838;4.636;2023-02-25T03:57:58;5.80;99.90
32536;DHT22;18974;50.838;4.636;2023-02-25T04:00:31;5.70;99.90
32536;DHT22;18974;50.838;4.636;2023-02-25T04:02:57;5.80;99.90
32536;DHT22;18974;50.838;4.636;2023-02-25T04:05:24;5.80;99.90
32536;DHT22;18974;50.838;4.636;2023-02-25T04:07:53;5.80;99.90
32536;DHT22;18974;50.838;4.636;2023-02-25T04:10:20;5.80;99.90
32536;DHT22;18974;50.838;4.636;2023-02-25T04:12:46;5.80;99.90
32536;DHT22;18974;50.838;4.636;2023-02-25T04:15:12;5.80;99.90
32536;DHT22;18974;50.838;4.636;2023-02-25T04:17:40;5.70;99.90
32536;DHT22;18974;50.838;4.636;2023-02-25T04:20:06;5.80;99.90
32536;DHT22;18974;50.838;4.636;2023-02-25T04:22:32;5.70;99.90
32536;DHT22;18974;50.838;4.636;2023-02-25T04:24:58;5.80;99.90
32536;DHT22;18974;50.838;4.636;2023-02-25T04:27:23;5.80;99.90
32536;DHT22;18974;50.838;4.636;2023-02-25T04:29:50;5.80;99.90
32536;DHT22;18974;50.838;4.636;2023-02-25T04:32:16;5.70;99.90
32536;DHT22;18974;50.838;4.636;2023-02-25T04:34:41;5.70;99.90
32536;DHT22;18974;50.838;4.636;2023-02-25T04:37:07;5.70;99.90
32536;DHT22;18974;50.838;4.636;2023-02-25T04:39:34;5.70;99.90
32536;DHT22;18974;50.838;4.636;2023-02-25T04:42:01;5.70;99.90
32536;DHT22;18974;50.838;4.636;2023-02-25T04:44:26;5.70;99.90
32536;DHT22;18974;50.838;4.636;2023-02-25T04:46:52;5.70;99.90
32536;DHT22;18974;50.838;4.636;2023-02-25T04:49:20;5.70;99.90
32536;DHT22;18974;50.838;4.636;2023-02-25T04:51:47;5.70;99.90
32536;DHT22;18974;50.838;4.636;2023-02-25T04:54:14;5.70;99.90
32536;DHT22;18974;50.838;4.636;2023-02-25T04:56:40;5.70;99.90
32536;DHT22;18974;50.838;4.636;2023-02-25T04:59:06;5.80;99.90
32536;DHT22;18974;50.838;4.636;2023-02-25T05:01:32;5.80;99.90
32536;DHT22;18974;50.838;4.636;2023-02-25T05:03:58;5.80;99.90
32536;DHT22;18974;50.838;4.636;2023-02-25T05:06:26;5.90;99.90
32536;DHT22;18974;50.838;4.636;2023-02-25T05:08:52;5.80;99.90
32536;DHT22;18974;50.838;4.636;2023-02-25T05:11:19;5.80;99.90
32536;DHT22;18974;50.838;4.636;2023-02-25T05:13:45;5.90;99.90
32536;DHT22;18974;50.838;4.636;2023-02-25T05:16:12;5.90;99.90
32536;DHT22;18974;50.838;4.636;2023-02-25T05:18:41;5.90;99.90
32536;DHT22;18974;50.838;4.636;2023-02-25T05:21:09;5.90;99.90
32536;DHT22;18974;50.838;4.636;2023-02-25T05:23:37;5.90;99.90
32536;DHT22;18974;50.838;4.636;2023-02-25T05:26:03;5.90;99.90
32536;DHT22;18974;50.838;4.636;2023-02-25T05:28:29;5.90;99.90
32536;DHT22;18974;50.838;4.636;2023-02-25T05:30:54;5.90;99.90
32536;DHT22;18974;50.838;4.636;2023-02-25T05:33:21;6.00;99.90
32536;DHT22;18974;50.838;4.636;2023-02-25T05:35:47;6.00;99.90
32536;DHT22;18974;50.838;4.636;2023-02-25T05:38:13;6.00;99.90
32536;DHT22;18974;50.838;4.636;2023-02-25T05:40:39;6.00;99.90
32536;DHT22;18974;50.838;4.636;2023-02-25T05:43:04;6.00;99.90
32536;DHT22;18974;50.838;4.636;2023-02-25T05:45:30;6.00;99.90
32536;DHT22;18974;50.838;4.636;2023-02-25T05:47:55;6.00;99.90
32536;DHT22;18974;50.838;4.636;2023-02-25T05:50:21;6.00;99.90
32536;DHT22;18974;50.838;4.636;2023-02-25T05:52:47;6.00;99.90
32536;DHT22;18974;50.838;4.636;2023-02-25T05:55:12;6.10;99.90
32536;DHT22;18974;50.838;4.636;2023-02-25T05:57:38;6.10;99.90
32536;DHT22;18974;50.838;4.636;2023-02-25T06:00:05;6.10;99.90
32536;DHT22;18974;50.838;4.636;2023-02-25T06:02:34;6.00;99.90
32536;DHT22;18974;50.838;4.636;2023-02-25T06:05:01;6.10;99.90
32536;DHT22;18974;50.838;4.636;2023-02-25T06:07:29;6.10;99.90
32536;DHT22;18974;50.838;4.636;2023-02-25T06:09:55;6.10;99.90
32536;DHT22;18974;50.838;4.636;2023-02-25T06:12:26;6.10;99.90
32536;DHT22;18974;50.838;4.636;2023-02-25T06:14:52;6.10;99.90
32536;DHT22;18974;50.838;4.636;2023-02-25T06:17:18;5.90;99.90
32536;DHT22;18974;50.838;4.636;2023-02-25T06:19:43;5.80;99.90
32536;DHT22;18974;50.838;4.636;2023-02-25T06:22:10;5.70;99.90
32536;DHT22;18974;50.838;4.636;2023-02-25T06:24:35;5.60;99.90
32536;DHT22;18974;50.838;4.636;2023-02-25T06:27:01;5.60;99.90
32536;DHT22;18974;50.838;4.636;2023-02-25T06:29:27;5.60;99.90
32536;DHT22;18974;50.838;4.636;2023-02-25T06:31:53;5.60;99.90
32536;DHT22;18974;50.838;4.636;2023-02-25T06:34:19;5.50;99.90
32536;DHT22;18974;50.838;4.636;2023-02-25T06:36:45;5.50;99.90
32536;DHT22;18974;50.838;4.636;2023-02-25T06:39:11;5.50;99.90
32536;DHT22;18974;50.838;4.636;2023-02-25T06:41:37;5.50;99.90
32536;DHT22;18974;50.838;4.636;2023-02-25T06:44:02;5.50;99.90
32536;DHT22;18974;50.838;4.636;2023-02-25T06:46:28;5.50;99.90
32536;DHT22;18974;50.838;4.636;2023-02-25T06:48:54;5.40;99.90
32536;DHT22;18974;50.838;4.636;2023-02-25T06:51:22;5.50;99.90
32536;DHT22;18974;50.838;4.636;2023-02-25T06:53:48;5.50;99.90
32536;DHT22;18974;50.838;4.636;2023-02-25T06:56:15;5.50;99.90
32536;DHT22;18974;50.838;4.636;2023-02-25T06:58:41;5.60;99.90
32536;DHT22;18974;50.838;4.636;2023-02-25T07:01:09;5.50;99.90
32536;DHT22;18974;50.838;4.636;2023-02-25T07:03:35;5.60;99.90
32536;DHT22;18974;50.838;4.636;2023-02-25T07:06:01;5.60;99.90
32536;DHT22;18974;50.838;4.636;2023-02-25T07:08:27;5.60;99.90
32536;DHT22;18974;50.838;4.636;2023-02-25T07:10:53;5.60;99.90
32536;DHT22;18974;50.838;4.636;2023-02-25T07:13:18;5.60;99.90
32536;DHT22;18974;50.838;4.636;2023-02-25T07:15:44;5.70;99.90
32536;DHT22;18974;50.838;4.636;2023-02-25T07:18:10;5.60;99.90
32536;DHT22;18974;50.838;4.636;2023-02-25T07:20:35;5.70;99.90
32536;DHT22;18974;50.838;4.636;2023-02-25T07:23:04;5.70;99.90
32536;DHT22;18974;50.838;4.636;2023-02-25T07:25:30;5.70;99.90
32536;DHT22;18974;50.838;4.636;2023-02-25T07:27:55;5.80;99.90
32536;DHT22;18974;50.838;4.636;2023-02-25T07:30:21;5.90;99.90
32536;DHT22;18974;50.838;4.636;2023-02-25T07:32:47;6.00;99.90
32536;DHT22;18974;50.838;4.636;2023-02-25T07:35:12;6.00;99.90
32536;DHT22;18974;50.838;4.636;2023-02-25T07:37:38;6.10;99.90
32536;DHT22;18974;50.838;4.636;2023-02-25T07:40:07;6.10;99.90
32536;DHT22;18974;50.838;4.636;2023-02-25T07:42:40;6.20;99.90
32536;DHT22;18974;50.838;4.636;2023-02-25T07:45:07;6.30;99.90
32536;DHT22;18974;50.838;4.636;2023-02-25T07:47:33;6.40;99.90
32536;DHT22;18974;50.838;4.636;2023-02-25T07:49:58;6.40;99.90
32536;DHT22;18974;50.838;4.636;2023-02-25T07:52:24;6.40;99.90
32536;DHT22;18974;50.838;4.636;2023-02-25T07:54:50;6.40;99.90
32536;DHT22;18974;50.838;4.636;2023-02-25T07:57:15;6.50;99.90
32536;DHT22;18974;50.838;4.636;2023-02-25T07:59:41;6.50;99.90
32536;DHT22;18974;50.838;4.636;2023-02-25T08:02:07;6.40;99.90
32536;DHT22;18974;50.838;4.636;2023-02-25T08:04:35;6.40;99.90
32536;DHT22;18974;50.838;4.636;2023-02-25T08:07:01;6.40;99.90
32536;DHT22;18974;50.838;4.636;2023-02-25T08:09:27;6.40;99.90
32536;DHT22;18974;50.838;4.636;2023-02-25T08:11:52;6.40;99.90
32536;DHT22;18974;50.838;4.636;2023-02-25T08:14:18;6.40;99.90
32536;DHT22;18974;50.838;4.636;2023-02-25T08:16:46;6.50;99.90
32536;DHT22;18974;50.838;4.636;2023-02-25T08:19:12;6.60;99.90
32536;DHT22;18974;50.838;4.636;2023-02-25T08:21:37;6.50;99.90
32536;DHT22;18974;50.838;4.636;2023-02-25T08:24:05;6.70;99.90
32536;DHT22;18974;50.838;4.636;2023-02-25T08:26:31;6.80;99.90
32536;DHT22;18974;50.838;4.636;2023-02-25T08:28:56;7.00;99.90
32536;DHT22;18974;50.838;4.636;2023-02-25T08:31:23;7.20;99.90
32536;DHT22;18974;50.838;4.636;2023-02-25T08:33:49;7.40;99.90
32536;DHT22;18974;50.838;4.636;2023-02-25T08:36:28;7.60;99.90
32536;DHT22;18974;50.838;4.636;2023-02-25T08:38:57;7.70;99.90
32536;DHT22;18974;50.838;4.636;2023-02-25T08:41:24;7.70;99.90
32536;DHT22;18974;50.838;4.636;2023-02-25T08:43:51;7.90;99.90
32536;DHT22;18974;50.838;4.636;2023-02-25T08:46:22;7.80;99.90
32536;DHT22;18974;50.838;4.636;2023-02-25T08:48:50;7.80;99.90
32536;DHT22;18974;50.838;4.636;2023-02-25T08:51:16;7.70;99.90
32536;DHT22;18974;50.838;4.636;2023-02-25T08:53:42;7.60;99.90
32536;DHT22;18974;50.838;4.636;2023-02-25T08:56:10;7.60;99.90
32536;DHT22;18974;50.838;4.636;2023-02-25T08:58:36;7.70;99.90
32536;DHT22;18974;50.838;4.636;2023-02-25T09:01:06;7.70;99.90
32536;DHT22;18974;50.838;4.636;2023-02-25T09:03:33;7.60;99.90
32536;DHT22;18974;50.838;4.636;2023-02-25T09:06:00;7.80;99.90
32536;DHT22;18974;50.838;4.636;2023-02-25T09:08:25;7.80;99.90
32536;DHT22;18974;50.838;4.636;2023-02-25T09:10:52;7.90;99.90
32536;DHT22;18974;50.838;4.636;2023-02-25T09:13:18;8.00;99.90
32536;DHT22;18974;50.838;4.636;2023-02-25T09:15:44;8.10;99.90
32536;DHT22;18974;50.838;4.636;2023-02-25T09:18:10;8.30;99.90
32536;DHT22;18974;50.838;4.636;2023-02-25T09:20:36;8.60;99.90
32536;DHT22;18974;50.838;4.636;2023-02-25T09:23:01;8.90;99.90
32536;DHT22;18974;50.838;4.636;2023-02-25T09:25:27;9.10;99.90
32536;DHT22;18974;50.838;4.636;2023-02-25T09:27:55;9.20;99.90
32536;DHT22;18974;50.838;4.636;2023-02-25T09:30:21;9.40;99.90
32536;DHT22;18974;50.838;4.636;2023-02-25T09:32:46;9.20;99.90
32536;DHT22;18974;50.838;4.636;2023-02-25T09:35:12;9.30;99.90
32536;DHT22;18974;50.838;4.636;2023-02-25T09:37:38;9.10;99.90
32536;DHT22;18974;50.838;4.636;2023-02-25T09:40:04;9.00;99.90
32536;DHT22;18974;50.838;4.636;2023-02-25T09:42:49;8.90;99.90
32536;DHT22;18974;50.838;4.636;2023-02-25T09:45:17;9.00;99.90
32536;DHT22;18974;50.838;4.636;2023-02-25T09:47:52;8.90;99.90
32536;DHT22;18974;50.838;4.636;2023-02-25T09:50:37;8.90;99.90
32536;DHT22;18974;50.838;4.636;2023-02-25T09:53:29;9.10;99.90
32536;DHT22;18974;50.838;4.636;2023-02-25T09:55:59;9.10;99.90
32536;DHT22;18974;50.838;4.636;2023-02-25T09:58:30;9.00;99.90
32536;DHT22;18974;50.838;4.636;2023-02-25T10:06:39;9.00;99.90
32536;DHT22;18974;50.838;4.636;2023-02-25T10:23:15;9.20;99.90
32536;DHT22;18974;50.838;4.636;2023-02-25T10:25:58;9.40;99.90
32536;DHT22;18974;50.838;4.636;2023-02-25T10:28:25;9.50;99.90
32536;DHT22;18974;50.838;4.636;2023-02-25T10:31:03;9.50;99.90
32536;DHT22;18974;50.838;4.636;2023-02-25T10:33:33;9.50;99.90
32536;DHT22;18974;50.838;4.636;2023-02-25T10:36:23;9.30;99.90
32536;DHT22;18974;50.838;4.636;2023-02-25T10:38:51;9.30;99.90
32536;DHT22;18974;50.838;4.636;2023-02-25T10:41:19;9.30;99.90
32536;DHT22;18974;50.838;4.636;2023-02-25T10:43:50;9.40;99.90
32536;DHT22;18974;50.838;4.636;2023-02-25T10:46:21;9.40;99.90
32536;DHT22;18974;50.838;4.636;2023-02-25T10:48:55;9.40;99.90
32536;DHT22;18974;50.838;4.636;2023-02-25T10:51:22;9.20;99.90
32536;DHT22;18974;50.838;4.636;2023-02-25T10:56:24;8.80;99.90
32536;DHT22;18974;50.838;4.636;2023-02-25T10:59:06;8.60;99.90
32536;DHT22;18974;50.838;4.636;2023-02-25T11:01:40;8.30;99.90
32536;DHT22;18974;50.838;4.636;2023-02-25T11:04:12;8.10;99.90
32536;DHT22;18974;50.838;4.636;2023-02-25T11:06:40;7.80;99.90
32536;DHT22;18974;50.838;4.636;2023-02-25T11:09:28;7.70;99.90
32536;DHT22;18974;50.838;4.636;2023-02-25T11:11:59;7.80;99.90
32536;DHT22;18974;50.838;4.636;2023-02-25T11:14:30;7.80;99.90
32536;DHT22;18974;50.838;4.636;2023-02-25T11:17:05;7.80;99.90
32536;DHT22;18974;50.838;4.636;2023-02-25T11:19:38;7.80;99.90
32536;DHT22;18974;50.838;4.636;2023-02-25T11:22:28;7.80;99.90
32536;DHT22;18974;50.838;4.636;2023-02-25T11:25:14;7.70;99.90
32536;DHT22;18974;50.838;4.636;2023-02-25T11:27:42;8.00;99.90
32536;DHT22;18974;50.838;4.636;2023-02-25T11:32:48;8.80;99.90
32536;DHT22;18974;50.838;4.636;2023-02-25T11:35:29;9.20;99.90
32536;DHT22;18974;50.838;4.636;2023-02-25T11:37:57;9.80;99.90
32536;DHT22;18974;50.838;4.636;2023-02-25T11:40:26;10.30;99.90
32536;DHT22;18974;50.838;4.636;2023-02-25T11:43:14;10.50;99.90
32536;DHT22;18974;50.838;4.636;2023-02-25T11:45:54;10.90;99.90
32536;DHT22;18974;50.838;4.636;2023-02-25T11:50:59;10.80;99.90
32536;DHT22;18974;50.838;4.636;2023-02-25T11:56:30;10.50;99.90
32536;DHT22;18974;50.838;4.636;2023-02-25T11:59:11;10.00;99.90
32536;DHT22;18974;50.838;4.636;2023-02-25T12:07:48;9.70;99.90
32536;DHT22;18974;50.838;4.636;2023-02-25T12:19:09;9.50;99.90
32536;DHT22;18974;50.838;4.636;2023-02-25T12:25:22;9.40;99.90
32536;DHT22;18974;50.838;4.636;2023-02-25T12:31:03;9.00;99.90
32536;DHT22;18974;50.838;4.636;2023-02-25T12:34:09;8.90;99.90
32536;DHT22;18974;50.838;4.636;2023-02-25T12:37:05;9.10;99.90
32536;DHT22;18974;50.838;4.636;2023-02-25T12:40:39;9.20;99.90
32536;DHT22;18974;50.838;4.636;2023-02-25T12:48:02;9.30;99.90
32536;DHT22;18974;50.838;4.636;2023-02-25T13:10:49;7.80;99.90
32536;DHT22;18974;50.838;4.636;2023-02-25T13:13:49;7.50;99.90
32536;DHT22;18974;50.838;4.636;2023-02-25T13:22:50;7.30;99.90
32536;DHT22;18974;50.838;4.636;2023-02-25T13:34:23;8.10;99.90
32536;DHT22;18974;50.838;4.636;2023-02-25T13:40:14;8.30;99.90
32536;DHT22;18974;50.838;4.636;2023-02-25T13:45:55;8.40;99.90
32536;DHT22;18974;50.838;4.636;2023-02-25T13:54:22;8.30;99.90
32536;DHT22;18974;50.838;4.636;2023-02-25T14:03:09;8.90;99.90
32536;DHT22;18974;50.838;4.636;2023-02-25T14:08:53;8.90;99.90
32536;DHT22;18974;50.838;4.636;2023-02-25T14:14:34;8.70;99.90
32536;DHT22;18974;50.838;4.636;2023-02-25T14:27:59;9.20;99.90
32536;DHT22;18974;50.838;4.636;2023-02-25T14:33:48;9.40;99.90
32536;DHT22;18974;50.838;4.636;2023-02-25T14:36:47;9.20;99.90
32536;DHT22;18974;50.838;4.636;2023-02-25T14:47:26;8.90;99.90
32536;DHT22;18974;50.838;4.636;2023-02-25T14:50:13;8.70;99.90
32536;DHT22;18974;50.838;4.636;2023-02-25T14:52:54;8.50;99.90
32536;DHT22;18974;50.838;4.636;2023-02-25T14:55:49;8.50;99.90
32536;DHT22;18974;50.838;4.636;2023-02-25T14:58:48;8.50;99.90
32536;DHT22;18974;50.838;4.636;2023-02-25T15:06:52;8.30;99.90
32536;DHT22;18974;50.838;4.636;2023-02-25T15:20:31;8.30;99.90
32536;DHT22;18974;50.838;4.636;2023-02-25T15:23:11;8.20;99.90
32536;DHT22;18974;50.838;4.636;2023-02-25T15:28:38;7.90;99.90
32536;DHT22;18974;50.838;4.636;2023-02-25T15:36:44;7.80;99.90
32536;DHT22;18974;50.838;4.636;2023-02-25T15:42:05;7.70;99.90
32536;DHT22;18974;50.838;4.636;2023-02-25T15:44:35;7.70;99.90
32536;DHT22;18974;50.838;4.636;2023-02-25T15:47:17;7.70;99.90
32536;DHT22;18974;50.838;4.636;2023-02-25T15:49:45;7.80;99.90
32536;DHT22;18974;50.838;4.636;2023-02-25T15:52:11;7.90;99.90
32536;DHT22;18974;50.838;4.636;2023-02-25T15:59:47;8.10;99.90
32536;DHT22;18974;50.838;4.636;2023-02-25T16:07:43;8.30;99.90
32536;DHT22;18974;50.838;4.636;2023-02-25T16:10:39;8.40;99.90
32536;DHT22;18974;50.838;4.636;2023-02-25T16:13:12;8.40;99.90
32536;DHT22;18974;50.838;4.636;2023-02-25T16:15:43;8.30;99.90
32536;DHT22;18974;50.838;4.636;2023-02-25T16:18:26;8.30;99.90
32536;DHT22;18974;50.838;4.636;2023-02-25T16:20:58;8.30;99.90
32536;DHT22;18974;50.838;4.636;2023-02-25T16:23:26;8.10;99.90
32536;DHT22;18974;50.838;4.636;2023-02-25T16:31:34;7.90;99.90
32536;DHT22;18974;50.838;4.636;2023-02-25T16:34:07;8.00;99.90
32536;DHT22;18974;50.838;4.636;2023-02-25T16:36:47;7.90;99.90
32536;DHT22;18974;50.838;4.636;2023-02-25T16:39:19;7.80;99.90
32536;DHT22;18974;50.838;4.636;2023-02-25T16:41:46;7.60;99.90
32536;DHT22;18974;50.838;4.636;2023-02-25T16:44:22;7.50;99.90
32536;DHT22;18974;50.838;4.636;2023-02-25T16:46:51;7.50;99.90
32536;DHT22;18974;50.838;4.636;2023-02-25T16:49:27;7.50;99.90
32536;DHT22;18974;50.838;4.636;2023-02-25T16:51:55;7.30;99.90
32536;DHT22;18974;50.838;4.636;2023-02-25T16:54:46;7.20;99.90
32536;DHT22;18974;50.838;4.636;2023-02-25T16:57:21;7.10;99.90
32536;DHT22;18974;50.838;4.636;2023-02-25T16:59:49;7.00;99.90
32536;DHT22;18974;50.838;4.636;2023-02-25T17:04:50;6.80;99.90
32536;DHT22;18974;50.838;4.636;2023-02-25T17:07:24;6.80;99.90
32536;DHT22;18974;50.838;4.636;2023-02-25T17:09:56;6.70;99.90
32536;DHT22;18974;50.838;4.636;2023-02-25T17:12:38;6.70;99.90
32536;DHT22;18974;50.838;4.636;2023-02-25T17:15:22;6.70;99.90
32536;DHT22;18974;50.838;4.636;2023-02-25T17:18:28;6.60;99.90
32536;DHT22;18974;50.838;4.636;2023-02-25T17:21:05;6.50;99.90
32536;DHT22;18974;50.838;4.636;2023-02-25T17:23:38;6.40;99.90
32536;DHT22;18974;50.838;4.636;2023-02-25T17:26:05;6.30;99.90
32536;DHT22;18974;50.838;4.636;2023-02-25T17:28:32;6.20;99.90
32536;DHT22;18974;50.838;4.636;2023-02-25T17:31:13;6.30;99.90
32536;DHT22;18974;50.838;4.636;2023-02-25T17:33:57;6.20;99.90
32536;DHT22;18974;50.838;4.636;2023-02-25T17:36:27;6.20;99.90
32536;DHT22;18974;50.838;4.636;2023-02-25T17:39:02;6.10;99.90
32536;DHT22;18974;50.838;4.636;2023-02-25T17:41:29;6.00;99.90
32536;DHT22;18974;50.838;4.636;2023-02-25T17:43:55;5.90;99.90
32536;DHT22;18974;50.838;4.636;2023-02-25T17:46:28;5.80;99.90
32536;DHT22;18974;50.838;4.636;2023-02-25T17:49:00;5.80;99.90
32536;DHT22;18974;50.838;4.636;2023-02-25T17:51:37;5.80;99.90
32536;DHT22;18974;50.838;4.636;2023-02-25T17:54:16;5.70;99.90
32536;DHT22;18974;50.838;4.636;2023-02-25T17:56:43;5.70;99.90
32536;DHT22;18974;50.838;4.636;2023-02-25T18:01:55;5.70;99.90
32536;DHT22;18974;50.838;4.636;2023-02-25T18:04:36;5.60;99.90
32536;DHT22;18974;50.838;4.636;2023-02-25T18:07:29;5.50;99.90
32536;DHT22;18974;50.838;4.636;2023-02-25T18:09:57;5.60;99.90
32536;DHT22;18974;50.838;4.636;2023-02-25T18:12:25;5.50;99.90
32536;DHT22;18974;50.838;4.636;2023-02-25T18:15:21;5.50;99.90
32536;DHT22;18974;50.838;4.636;2023-02-25T18:17:52;5.50;99.90
32536;DHT22;18974;50.838;4.636;2023-02-25T18:22:52;5.50;99.90
32536;DHT22;18974;50.838;4.636;2023-02-25T18:27:55;5.50;99.90
32536;DHT22;18974;50.838;4.636;2023-02-25T18:30:23;5.50;99.90
32536;DHT22;18974;50.838;4.636;2023-02-25T18:32:50;5.40;99.90
32536;DHT22;18974;50.838;4.636;2023-02-25T18:35:17;5.30;99.90
32536;DHT22;18974;50.838;4.636;2023-02-25T18:37:50;5.40;99.90
32536;DHT22;18974;50.838;4.636;2023-02-25T18:40:30;5.30;99.90
32536;DHT22;18974;50.838;4.636;2023-02-25T18:42:57;5.30;99.90
32536;DHT22;18974;50.838;4.636;2023-02-25T18:45:24;5.20;99.90
32536;DHT22;18974;50.838;4.636;2023-02-25T18:47:52;5.20;99.90
32536;DHT22;18974;50.838;4.636;2023-02-25T18:50:18;5.20;99.90
32536;DHT22;18974;50.838;4.636;2023-02-25T18:52:44;5.10;99.90
32536;DHT22;18974;50.838;4.636;2023-02-25T18:55:19;5.10;99.90
32536;DHT22;18974;50.838;4.636;2023-02-25T18:57:45;5.00;99.90
32536;DHT22;18974;50.838;4.636;2023-02-25T19:00:12;4.90;99.90
32536;DHT22;18974;50.838;4.636;2023-02-25T19:02:52;5.00;99.90
32536;DHT22;18974;50.838;4.636;2023-02-25T19:05:19;5.00;99.90
32536;DHT22;18974;50.838;4.636;2023-02-25T19:07:46;5.00;99.90
32536;DHT22;18974;50.838;4.636;2023-02-25T19:10:30;4.80;99.90
32536;DHT22;18974;50.838;4.636;2023-02-25T19:13:06;4.80;99.90
32536;DHT22;18974;50.838;4.636;2023-02-25T19:15:32;4.80;99.90
32536;DHT22;18974;50.838;4.636;2023-02-25T19:17:58;4.80;99.90
32536;DHT22;18974;50.838;4.636;2023-02-25T19:20:23;4.80;99.90
32536;DHT22;18974;50.838;4.636;2023-02-25T19:22:51;4.70;99.90
32536;DHT22;18974;50.838;4.636;2023-02-25T19:25:23;4.70;99.90
32536;DHT22;18974;50.838;4.636;2023-02-25T19:27:50;4.70;99.90
32536;DHT22;18974;50.838;4.636;2023-02-25T19:30:18;4.70;99.90
32536;DHT22;18974;50.838;4.636;2023-02-25T19:32:44;4.70;99.90
32536;DHT22;18974;50.838;4.636;2023-02-25T19:35:10;4.70;99.90
32536;DHT22;18974;50.838;4.636;2023-02-25T19:37:42;4.70;99.90
32536;DHT22;18974;50.838;4.636;2023-02-25T19:40:12;4.60;99.90